Aviation Digital Data Service (ADDS)

Output produced by TAFs form (1150 UTC 27 May 2017)
found at http://www.aviationweather.gov/adds/tafs/
 
METAR text: ZBTJ 271130Z 11003MPS 7000 NSC 25/14 Q1003 NOSIG
Conditions at: ZBTJ (TIANJIN/ZHANGGUI, CN) observed 1130 UTC 27 May 2017
Temperature: 25.0°C (77°F)
Dewpoint: 14.0°C (57°F) [RH = 50%]
Pressure (altimeter): 29.62 inches Hg (1003.0 mb)
Winds: from the ESE (110 degrees) at 7 MPH (6 knots; 3.1 m/s)
Visibility: 4 miles (7 km)
Ceiling: at least 12,000 feet AGL
Clouds: sky clear below 12,000 feet AGL
Weather: no significant weather observed at this time

Forecast for: ZBTJ (TIANJIN/ZHANGGUI, CN)
Text: TAF ZBTJ 270910Z 2712/2812 11003MPS 5000 BR NSC TX28/2807Z TN18/2721Z
Forecast period: 1200 UTC 27 May 2017 to 1200 UTC 28 May 2017
Forecast type: FROM: standard forecast or significant change
Winds: from the ESE (110 degrees) at 7 MPH (6 knots; 3.1 m/s)
Visibility: 3 miles (5 km)
Clouds: not forecast
Weather: BR  (mist)